createdAt,value
2023-04-10T00:01:28.186Z,95722
2023-04-10T00:04:53.461Z,95714
2023-04-10T00:08:18.646Z,95707
2023-04-10T00:11:43.835Z,95713
2023-04-10T00:15:09.069Z,95709
2023-04-10T00:18:34.281Z,95709
2023-04-10T00:21:59.471Z,95708
2023-04-10T00:25:24.741Z,95708
2023-04-10T00:28:49.975Z,95707
2023-04-10T00:32:15.191Z,95699
2023-04-10T00:35:40.379Z,95691
2023-04-10T00:39:05.569Z,95692
2023-04-10T00:42:30.787Z,95685
2023-04-10T00:45:56.000Z,95684
2023-04-10T00:49:21.198Z,95680
2023-04-10T00:52:46.379Z,95677
2023-04-10T00:56:11.568Z,95670
2023-04-10T00:59:36.831Z,95669
2023-04-10T01:03:02.251Z,95669
2023-04-10T01:06:27.247Z,95666
2023-04-10T01:09:52.453Z,95675
2023-04-10T01:13:17.681Z,95680
2023-04-10T01:16:42.941Z,95679
2023-04-10T01:20:08.078Z,95680
2023-04-10T01:23:33.284Z,95678
2023-04-10T01:26:58.486Z,95678
2023-04-10T01:30:23.707Z,95674
2023-04-10T01:33:48.927Z,95661
2023-04-10T01:37:14.118Z,95660
2023-04-10T01:40:39.387Z,95659
2023-04-10T01:44:04.620Z,95662
2023-04-10T01:47:29.812Z,95655
2023-04-10T01:50:55.051Z,95658
2023-04-10T01:54:20.269Z,95667
2023-04-10T01:57:45.532Z,95658
2023-04-10T02:01:19.294Z,95658
2023-04-10T02:04:36.038Z,95656
2023-04-10T02:08:01.184Z,95656
2023-04-10T02:11:26.379Z,95651
2023-04-10T02:14:51.596Z,95647
2023-04-10T02:18:18.846Z,95646
2023-04-10T02:21:44.062Z,95645
2023-04-10T02:25:09.343Z,95646
2023-04-10T02:28:34.554Z,95642
2023-04-10T02:31:59.769Z,95643
2023-04-10T02:35:24.965Z,95645
2023-04-10T02:38:50.187Z,95649
2023-04-10T02:42:15.453Z,95645
2023-04-10T02:45:40.602Z,95648
2023-04-10T02:49:05.820Z,95654
2023-04-10T02:52:31.007Z,95650
2023-04-10T02:55:56.199Z,95655
2023-04-10T02:59:21.439Z,95656
2023-04-10T03:02:46.848Z,95650
2023-04-10T03:06:11.872Z,95653
2023-04-10T03:09:37.082Z,95655
2023-04-10T03:13:02.324Z,95659
2023-04-10T03:16:27.746Z,95655
2023-04-10T03:19:52.745Z,95659
2023-04-10T03:23:17.964Z,95657
2023-04-10T03:26:43.131Z,95659
2023-04-10T03:30:08.347Z,95654
2023-04-10T03:33:33.582Z,95661
2023-04-10T03:36:58.761Z,95659
2023-04-10T03:40:24.005Z,95661
2023-04-10T03:43:49.199Z,95668
2023-04-10T03:47:14.436Z,95659
2023-04-10T03:50:39.640Z,95656
2023-04-10T03:54:04.847Z,95653
2023-04-10T03:57:30.054Z,95654
2023-04-10T04:00:55.279Z,95659
2023-04-10T04:04:20.571Z,95658
2023-04-10T04:07:45.744Z,95669
2023-04-10T04:11:10.923Z,95670
2023-04-10T04:14:36.118Z,95675
2023-04-10T04:18:01.365Z,95666
2023-04-10T04:21:26.537Z,95662
2023-04-10T04:24:51.773Z,95666
2023-04-10T04:28:16.974Z,95666
2023-04-10T04:31:42.190Z,95667
2023-04-10T04:35:07.467Z,95668
2023-04-10T04:38:32.669Z,95669
2023-04-10T04:41:57.930Z,95674
2023-04-10T04:45:23.101Z,95672
2023-04-10T04:48:48.336Z,95671
2023-04-10T04:52:13.571Z,95674
2023-04-10T04:55:38.843Z,95674
2023-04-10T04:59:04.077Z,95671
2023-04-10T05:02:29.465Z,95671
2023-04-10T05:05:54.489Z,95667
2023-04-10T05:09:19.715Z,95659
2023-04-10T05:12:44.921Z,95667
2023-04-10T05:16:10.239Z,95670
2023-04-10T05:19:35.385Z,95677
2023-04-10T05:23:00.595Z,95674
2023-04-10T05:26:25.938Z,95675
2023-04-10T05:29:51.248Z,95671
2023-04-10T05:33:16.585Z,95674
2023-04-10T05:36:41.822Z,95674
2023-04-10T05:40:07.246Z,95669
2023-04-10T05:43:32.753Z,95664
2023-04-10T05:46:57.996Z,95664
2023-04-10T05:50:23.330Z,95661
2023-04-10T05:53:48.757Z,95657
2023-04-10T05:57:13.939Z,95658
2023-04-10T06:00:39.188Z,95657
2023-04-10T06:04:04.596Z,95660
2023-04-10T06:07:30.060Z,95665
2023-04-10T06:10:55.275Z,95662
2023-04-10T06:14:20.598Z,95658
2023-04-10T06:17:45.924Z,95655
2023-04-10T06:21:11.491Z,95654
2023-04-10T06:24:36.921Z,95655
2023-04-10T06:28:02.263Z,95648
2023-04-10T06:31:27.573Z,95651
2023-04-10T06:34:52.853Z,95649
2023-04-10T06:38:18.161Z,95645
2023-04-10T06:41:43.545Z,95646
2023-04-10T06:45:08.668Z,95650
2023-04-10T06:48:33.957Z,95652
2023-04-10T06:51:59.395Z,95652
2023-04-10T06:55:24.641Z,95654
2023-04-10T06:58:49.935Z,95651
2023-04-10T07:02:15.145Z,95647
2023-04-10T07:05:42.271Z,95652
2023-04-10T07:09:06.834Z,95654
2023-04-10T07:12:32.952Z,95651
2023-04-10T07:15:58.321Z,95648
2023-04-10T07:19:23.694Z,95645
2023-04-10T07:22:48.942Z,95652
2023-04-10T07:26:14.156Z,95648
2023-04-10T07:29:39.834Z,95648
2023-04-10T07:33:05.710Z,95643
2023-04-10T07:36:30.706Z,95646
2023-04-10T07:39:55.952Z,95640
2023-04-10T07:43:21.163Z,95639
2023-04-10T07:46:46.442Z,95630
2023-04-10T07:50:11.694Z,95632
2023-04-10T07:53:36.890Z,95627
2023-04-10T07:57:02.068Z,95622
2023-04-10T08:00:27.210Z,95612
2023-04-10T08:03:52.428Z,95615
2023-04-10T08:07:17.496Z,95614
2023-04-10T08:10:42.629Z,95615
2023-04-10T08:14:07.846Z,95616
2023-04-10T08:17:32.973Z,95610
2023-04-10T08:20:58.234Z,95610
2023-04-10T08:24:23.425Z,95612
2023-04-10T08:27:48.648Z,95618
2023-04-10T08:31:13.885Z,95610
2023-04-10T08:34:39.076Z,95603
2023-04-10T08:38:13.108Z,95611
2023-04-10T08:41:29.558Z,95608
2023-04-10T08:44:54.765Z,95608
2023-04-10T08:48:19.959Z,95602
2023-04-10T08:51:45.814Z,95607
2023-04-10T08:55:10.392Z,95606
2023-04-10T08:58:35.622Z,95601
2023-04-10T09:02:00.910Z,95597
2023-04-10T09:05:26.042Z,95589
2023-04-10T09:08:51.321Z,95593
2023-04-10T09:12:16.565Z,95594
2023-04-10T09:15:41.845Z,95597
2023-04-10T09:19:07.716Z,95591
2023-04-10T09:22:32.179Z,95592
2023-04-10T09:25:57.364Z,95587
2023-04-10T09:29:22.607Z,95576
2023-04-10T09:32:47.859Z,95576
2023-04-10T09:36:13.037Z,95571
2023-04-10T09:39:38.224Z,95566
2023-04-10T09:43:03.475Z,95557
2023-04-10T09:46:28.799Z,95551
2023-04-10T09:49:53.931Z,95556
2023-04-10T09:53:19.219Z,95553
2023-04-10T09:56:44.534Z,95539
2023-04-10T10:00:09.774Z,95536
2023-04-10T10:03:34.960Z,95530
2023-04-10T10:07:00.228Z,95533
2023-04-10T10:10:25.506Z,95514
2023-04-10T10:13:50.765Z,95510
2023-04-10T10:17:15.983Z,95497
2023-04-10T10:20:41.190Z,95496
2023-04-10T10:24:06.430Z,95494
2023-04-10T10:27:31.643Z,95484
2023-04-10T10:30:56.836Z,95486
2023-04-10T10:34:22.187Z,95484
2023-04-10T10:37:47.409Z,95476
2023-04-10T10:41:12.962Z,95468
2023-04-10T10:44:39.573Z,95463
2023-04-10T10:48:05.684Z,95461
2023-04-10T10:51:30.969Z,95462
2023-04-10T10:54:59.582Z,95451
2023-04-10T10:58:21.745Z,95449
2023-04-10T11:01:47.228Z,95443
2023-04-10T11:05:12.489Z,95446
2023-04-10T11:08:37.867Z,95436
2023-04-10T11:12:03.378Z,95432
2023-04-10T11:15:28.796Z,95430
2023-04-10T11:19:06.237Z,95424
2023-04-10T11:22:19.557Z,95418
2023-04-10T11:25:46.337Z,95423
2023-04-10T11:29:11.793Z,95410
2023-04-10T11:32:37.096Z,95406
2023-04-10T11:36:02.266Z,95417
2023-04-10T11:39:27.528Z,95415
2023-04-10T11:42:52.760Z,95411
2023-04-10T11:46:18.015Z,95401
2023-04-10T11:49:43.261Z,95392
2023-04-10T11:53:08.477Z,95397
2023-04-10T11:56:33.766Z,95389
2023-04-10T11:59:58.932Z,95391
2023-04-10T12:03:24.217Z,95387
2023-04-10T12:06:49.433Z,95383
2023-04-10T12:10:14.650Z,95384
2023-04-10T12:13:39.857Z,95376
2023-04-10T12:17:05.190Z,95372
2023-04-10T12:20:30.499Z,95368
2023-04-10T12:23:56.296Z,95353
2023-04-10T12:27:21.511Z,95348
2023-04-10T12:30:46.775Z,95349
2023-04-10T12:34:12.249Z,95349
2023-04-10T12:37:38.140Z,95347
2023-04-10T12:41:03.459Z,95349
2023-04-10T12:44:28.678Z,95334
2023-04-10T12:47:53.981Z,95329
2023-04-10T12:51:22.310Z,95323
2023-04-10T12:54:47.636Z,95313
2023-04-10T12:58:12.898Z,95311
2023-04-10T13:01:38.151Z,95307
2023-04-10T13:05:03.338Z,95290
2023-04-10T13:08:28.609Z,95293
2023-04-10T13:11:53.878Z,95280
2023-04-10T13:15:19.161Z,95263
2023-04-10T13:18:44.339Z,95259
2023-04-10T13:22:09.615Z,95260
2023-04-10T13:25:34.914Z,95261
2023-04-10T13:29:00.193Z,95260
2023-04-10T13:32:25.491Z,95249
2023-04-10T13:35:50.701Z,95241
2023-04-10T13:39:15.960Z,95241
2023-04-10T13:42:42.594Z,95244
2023-04-10T13:46:06.574Z,95229
2023-04-10T13:49:31.812Z,95219
2023-04-10T13:52:57.046Z,95212
2023-04-10T13:56:22.288Z,95200
2023-04-10T13:59:47.594Z,95196
2023-04-10T14:03:12.878Z,95197
2023-04-10T14:06:38.109Z,95196
2023-04-10T14:10:03.360Z,95186
2023-04-10T14:13:28.606Z,95194
2023-04-10T14:16:53.867Z,95189
2023-04-10T14:20:19.127Z,95181
2023-04-10T14:23:44.446Z,95168
2023-04-10T14:27:12.806Z,95168
2023-04-10T14:30:35.828Z,95167
2023-04-10T14:34:01.138Z,95165
2023-04-10T14:37:27.165Z,95164
2023-04-10T14:40:52.437Z,95160
2023-04-10T14:44:17.687Z,95159
2023-04-10T14:47:42.981Z,95153
2023-04-10T14:51:08.270Z,95147
2023-04-10T14:54:33.504Z,95143
2023-04-10T14:57:59.403Z,95136
2023-04-10T15:01:24.745Z,95134
2023-04-10T15:04:49.991Z,95131
2023-04-10T15:41:11.860Z,95103
2023-04-10T15:44:37.080Z,95104
2023-04-10T15:48:02.394Z,95100
2023-04-10T15:51:27.588Z,95089
2023-04-10T15:54:52.842Z,95084
2023-04-10T15:58:18.119Z,95078
2023-04-10T16:01:43.346Z,95073
2023-04-10T16:05:08.685Z,95070
2023-04-10T16:08:33.938Z,95064
2023-04-10T16:11:59.380Z,95061
2023-04-10T16:15:24.677Z,95058
2023-04-10T16:18:50.079Z,95052
2023-04-10T16:22:15.317Z,95050
2023-04-10T16:25:40.638Z,95043
2023-04-10T16:29:05.942Z,95046
2023-04-10T16:32:31.691Z,95044
2023-04-10T16:35:56.505Z,95040
2023-04-10T16:39:21.773Z,95033
2023-04-10T16:42:47.032Z,95025
2023-04-10T16:46:12.408Z,95027
2023-04-10T16:49:37.703Z,95020
2023-04-10T16:53:03.004Z,95021
2023-04-10T16:56:28.264Z,95011
2023-04-10T16:59:53.539Z,95012
2023-04-10T17:03:18.910Z,95013
2023-04-10T17:06:44.284Z,95011
2023-04-10T17:10:09.572Z,94996
2023-04-10T17:13:34.856Z,94989
2023-04-10T17:17:00.219Z,94984
2023-04-10T17:20:25.441Z,94975
2023-04-10T17:23:50.904Z,94964
2023-04-10T17:27:16.109Z,94966
2023-04-10T17:30:41.372Z,94952
2023-04-10T17:34:06.659Z,94951
2023-04-10T17:37:31.888Z,94947
2023-04-10T17:40:57.219Z,94944
2023-04-10T17:44:22.503Z,94942
2023-04-10T17:47:47.817Z,94936
2023-04-10T17:51:13.061Z,94932
2023-04-10T17:54:38.422Z,94931
2023-04-10T17:58:03.769Z,94928
2023-04-10T18:01:29.045Z,94923
2023-04-10T18:04:54.299Z,94924
2023-04-10T18:08:19.573Z,94931
2023-04-10T18:11:44.910Z,94913
2023-04-10T18:15:10.280Z,94912
2023-04-10T18:18:35.543Z,94909
2023-04-10T18:22:00.851Z,94911
2023-04-10T18:25:26.743Z,94916
2023-04-10T18:28:52.068Z,94921
2023-04-10T18:32:17.333Z,94912
2023-04-10T18:35:42.636Z,94909
2023-04-10T18:39:35.426Z,94908
2023-04-10T18:43:00.697Z,94905
2023-04-10T18:46:26.004Z,94900
2023-04-10T18:49:51.323Z,94898
2023-04-10T18:53:16.623Z,94891
2023-04-10T18:56:41.896Z,94887
2023-04-10T19:00:07.222Z,94884
2023-04-10T19:03:33.682Z,94882
2023-04-10T19:06:58.797Z,94876
2023-04-10T19:10:24.082Z,94875
2023-04-10T19:13:49.295Z,94876
2023-04-10T19:17:14.545Z,94861
2023-04-10T19:20:51.344Z,94859
2023-04-10T19:24:05.098Z,94865
2023-04-10T19:27:30.284Z,94857
2023-04-10T19:30:55.608Z,94856
2023-04-10T19:34:20.918Z,94857
2023-04-10T19:37:46.164Z,94851
2023-04-10T19:41:11.421Z,94843
2023-04-10T19:44:36.619Z,94842
2023-04-10T19:48:01.915Z,94844
2023-04-10T19:51:27.184Z,94840
2023-04-10T19:54:52.425Z,94841
2023-04-10T19:58:30.372Z,94835
2023-04-10T20:01:42.993Z,94836
2023-04-10T20:05:08.203Z,94829
2023-04-10T20:08:33.389Z,94833
2023-04-10T20:11:58.629Z,94826
2023-04-10T20:15:23.841Z,94824
2023-04-10T20:18:49.025Z,94818
2023-04-10T20:22:14.229Z,94806
2023-04-10T20:25:39.461Z,94801
2023-04-10T20:29:04.697Z,94805
2023-04-10T20:32:29.978Z,94802
2023-04-10T20:35:55.143Z,94809
2023-04-10T20:39:20.342Z,94806
2023-04-10T20:42:45.522Z,94799
2023-04-10T20:46:10.767Z,94779
2023-04-10T20:49:35.992Z,94767
2023-04-10T20:53:01.218Z,94771
2023-04-10T20:56:33.045Z,94766
2023-04-10T20:59:51.647Z,94763
2023-04-10T21:03:16.894Z,94749
2023-04-10T21:06:42.065Z,94739
2023-04-10T21:10:07.377Z,94730
2023-04-10T21:13:32.442Z,94725
2023-04-10T21:16:57.700Z,94721
2023-04-10T21:20:22.901Z,94731
2023-04-10T21:23:48.104Z,94718
2023-04-10T21:27:13.326Z,94714
2023-04-10T21:30:38.523Z,94710
2023-04-10T21:34:03.725Z,94707
2023-04-10T21:37:28.898Z,94705
2023-04-10T21:40:54.115Z,94703
2023-04-10T21:44:19.256Z,94691
2023-04-10T21:47:44.498Z,94694
2023-04-10T21:51:09.696Z,94685
2023-04-10T21:54:34.892Z,94684
2023-04-10T21:58:00.144Z,94687
2023-04-10T22:01:25.367Z,94685
2023-04-10T22:04:54.194Z,94677
2023-04-10T22:08:15.717Z,94666
2023-04-10T22:11:40.901Z,94666
2023-04-10T22:15:06.131Z,94663
2023-04-10T22:18:31.292Z,94657
2023-04-10T22:21:56.472Z,94656
2023-04-10T22:25:21.668Z,94655
2023-04-10T22:28:46.856Z,94648
2023-04-10T22:32:12.065Z,94646
2023-04-10T22:35:37.295Z,94648
2023-04-10T22:39:02.486Z,94642
2023-04-10T22:42:28.829Z,94632
2023-04-10T22:45:53.010Z,94632
2023-04-10T22:49:18.173Z,94625
2023-04-10T22:52:43.315Z,94614
2023-04-10T22:56:08.513Z,94602
2023-04-10T22:59:33.703Z,94595
2023-04-10T23:02:59.062Z,94585
2023-04-10T23:06:24.108Z,94577
2023-04-10T23:09:49.300Z,94580
2023-04-10T23:13:14.520Z,94579
2023-04-10T23:16:39.765Z,94581
2023-04-10T23:20:04.952Z,94579
2023-04-10T23:23:30.198Z,94576
2023-04-10T23:26:55.402Z,94574
2023-04-10T23:30:20.593Z,94553
2023-04-10T23:33:45.765Z,94536
2023-04-10T23:37:10.998Z,94515
2023-04-10T23:40:36.186Z,94494
2023-04-10T23:44:01.367Z,94458
2023-04-10T23:47:26.565Z,94425
2023-04-10T23:50:51.782Z,94418
2023-04-10T23:54:16.984Z,94427
2023-04-10T23:57:42.171Z,94452
